sensor_id;sensor_type;location;lat;lon;timestamp;P1;durP1;ratioP1;P2;durP2;ratioP2
55784;SDS011;41709;52.536;5.688;2023-07-31T00:00:13;1.25;;;0.73;;
55784;SDS011;41709;52.536;5.688;2023-07-31T00:02:38;2.40;;;0.60;;
55784;SDS011;41709;52.536;5.688;2023-07-31T00:05:04;1.30;;;0.63;;
55784;SDS011;41709;52.536;5.688;2023-07-31T00:07:31;2.20;;;0.60;;
55784;SDS011;41709;52.536;5.688;2023-07-31T00:09:57;0.80;;;0.47;;
55784;SDS011;41709;52.536;5.688;2023-07-31T00:12:23;0.80;;;0.40;;
55784;SDS011;41709;52.536;5.688;2023-07-31T00:14:48;1.75;;;0.50;;
55784;SDS011;41709;52.536;5.688;2023-07-31T00:17:14;1.80;;;0.68;;
55784;SDS011;41709;52.536;5.688;2023-07-31T00:19:40;0.65;;;0.65;;
55784;SDS011;41709;52.536;5.688;2023-07-31T00:22:05;0.70;;;0.55;;
55784;SDS011;41709;52.536;5.688;2023-07-31T00:24:31;0.80;;;0.55;;
55784;SDS011;41709;52.536;5.688;2023-07-31T00:26:56;2.13;;;0.55;;
55784;SDS011;41709;52.536;5.688;2023-07-31T00:29:22;1.27;;;0.70;;
55784;SDS011;41709;52.536;5.688;2023-07-31T00:31:48;0.95;;;0.63;;
55784;SDS011;41709;52.536;5.688;2023-07-31T00:34:13;0.55;;;0.50;;
55784;SDS011;41709;52.536;5.688;2023-07-31T00:36:39;0.85;;;0.73;;
55784;SDS011;41709;52.536;5.688;2023-07-31T00:39:04;1.40;;;0.70;;
55784;SDS011;41709;52.536;5.688;2023-07-31T00:41:30;0.80;;;0.70;;
55784;SDS011;41709;52.536;5.688;2023-07-31T00:43:56;0.73;;;0.55;;
55784;SDS011;41709;52.536;5.688;2023-07-31T00:46:21;0.70;;;0.60;;
55784;SDS011;41709;52.536;5.688;2023-07-31T00:48:47;2.50;;;0.63;;
55784;SDS011;41709;52.536;5.688;2023-07-31T00:51:13;1.73;;;0.90;;
55784;SDS011;41709;52.536;5.688;2023-07-31T00:53:40;1.52;;;0.77;;
55784;SDS011;41709;52.536;5.688;2023-07-31T00:56:06;2.42;;;0.52;;
55784;SDS011;41709;52.536;5.688;2023-07-31T00:58:32;0.90;;;0.60;;
55784;SDS011;41709;52.536;5.688;2023-07-31T01:00:58;1.85;;;0.80;;
55784;SDS011;41709;52.536;5.688;2023-07-31T01:03:23;1.58;;;0.80;;
55784;SDS011;41709;52.536;5.688;2023-07-31T01:06:04;2.25;;;1.00;;
55784;SDS011;41709;52.536;5.688;2023-07-31T01:08:47;1.17;;;0.80;;
55784;SDS011;41709;52.536;5.688;2023-07-31T01:11:25;2.63;;;1.17;;
55784;SDS011;41709;52.536;5.688;2023-07-31T01:13:56;3.67;;;1.20;;
55784;SDS011;41709;52.536;5.688;2023-07-31T01:18:48;2.97;;;1.23;;
55784;SDS011;41709;52.536;5.688;2023-07-31T01:27:02;5.00;;;1.35;;
55784;SDS011;41709;52.536;5.688;2023-07-31T01:29:47;4.45;;;1.55;;
55784;SDS011;41709;52.536;5.688;2023-07-31T01:32:35;6.25;;;0.93;;
55784;SDS011;41709;52.536;5.688;2023-07-31T01:35:04;2.72;;;1.38;;
55784;SDS011;41709;52.536;5.688;2023-07-31T01:37:30;2.00;;;1.27;;
55784;SDS011;41709;52.536;5.688;2023-07-31T01:39:57;5.88;;;1.30;;
55784;SDS011;41709;52.536;5.688;2023-07-31T01:42:23;3.33;;;1.13;;
55784;SDS011;41709;52.536;5.688;2023-07-31T01:44:48;5.72;;;2.50;;
55784;SDS011;41709;52.536;5.688;2023-07-31T01:47:14;7.82;;;2.17;;
55784;SDS011;41709;52.536;5.688;2023-07-31T01:49:39;7.28;;;2.40;;
55784;SDS011;41709;52.536;5.688;2023-07-31T01:52:05;5.55;;;2.72;;
55784;SDS011;41709;52.536;5.688;2023-07-31T01:54:31;8.75;;;2.90;;
55784;SDS011;41709;52.536;5.688;2023-07-31T01:56:57;9.00;;;3.08;;
55784;SDS011;41709;52.536;5.688;2023-07-31T01:59:23;8.25;;;2.50;;
55784;SDS011;41709;52.536;5.688;2023-07-31T02:01:48;7.28;;;2.63;;
55784;SDS011;41709;52.536;5.688;2023-07-31T02:04:14;8.10;;;2.55;;
55784;SDS011;41709;52.536;5.688;2023-07-31T02:06:39;7.55;;;2.33;;
55784;SDS011;41709;52.536;5.688;2023-07-31T02:09:05;8.23;;;2.50;;
55784;SDS011;41709;52.536;5.688;2023-07-31T02:11:31;10.07;;;3.58;;
55784;SDS011;41709;52.536;5.688;2023-07-31T02:13:56;13.95;;;2.55;;
55784;SDS011;41709;52.536;5.688;2023-07-31T02:16:22;8.90;;;3.00;;
55784;SDS011;41709;52.536;5.688;2023-07-31T02:18:47;6.50;;;2.50;;
55784;SDS011;41709;52.536;5.688;2023-07-31T02:21:13;6.18;;;2.80;;
55784;SDS011;41709;52.536;5.688;2023-07-31T02:23:38;9.45;;;2.67;;
55784;SDS011;41709;52.536;5.688;2023-07-31T02:26:04;7.20;;;2.83;;
55784;SDS011;41709;52.536;5.688;2023-07-31T02:28:30;7.63;;;2.38;;
55784;SDS011;41709;52.536;5.688;2023-07-31T02:30:55;7.55;;;3.58;;
55784;SDS011;41709;52.536;5.688;2023-07-31T02:33:21;8.20;;;2.75;;
55784;SDS011;41709;52.536;5.688;2023-07-31T02:35:46;7.18;;;2.58;;
55784;SDS011;41709;52.536;5.688;2023-07-31T02:38:12;7.95;;;2.92;;
55784;SDS011;41709;52.536;5.688;2023-07-31T02:40:38;6.75;;;3.80;;
55784;SDS011;41709;52.536;5.688;2023-07-31T02:43:06;8.77;;;3.00;;
55784;SDS011;41709;52.536;5.688;2023-07-31T02:45:32;7.72;;;2.70;;
55784;SDS011;41709;52.536;5.688;2023-07-31T02:47:57;11.45;;;3.25;;
55784;SDS011;41709;52.536;5.688;2023-07-31T02:50:23;10.05;;;2.95;;
55784;SDS011;41709;52.536;5.688;2023-07-31T02:52:48;7.53;;;3.05;;
55784;SDS011;41709;52.536;5.688;2023-07-31T02:55:14;13.27;;;4.07;;
55784;SDS011;41709;52.536;5.688;2023-07-31T02:57:40;12.85;;;4.13;;
55784;SDS011;41709;52.536;5.688;2023-07-31T03:00:05;19.75;;;4.65;;
55784;SDS011;41709;52.536;5.688;2023-07-31T03:02:32;14.70;;;4.18;;
55784;SDS011;41709;52.536;5.688;2023-07-31T03:04:57;16.92;;;5.13;;
55784;SDS011;41709;52.536;5.688;2023-07-31T03:07:23;16.35;;;4.55;;
55784;SDS011;41709;52.536;5.688;2023-07-31T03:09:48;30.63;;;7.22;;
55784;SDS011;41709;52.536;5.688;2023-07-31T03:12:14;22.42;;;4.57;;
55784;SDS011;41709;52.536;5.688;2023-07-31T03:14:40;19.60;;;5.18;;
55784;SDS011;41709;52.536;5.688;2023-07-31T03:17:05;18.23;;;5.50;;
55784;SDS011;41709;52.536;5.688;2023-07-31T03:19:32;26.17;;;6.65;;
55784;SDS011;41709;52.536;5.688;2023-07-31T03:21:58;20.13;;;6.93;;
55784;SDS011;41709;52.536;5.688;2023-07-31T03:24:24;20.02;;;5.95;;
55784;SDS011;41709;52.536;5.688;2023-07-31T03:26:50;22.27;;;5.80;;
55784;SDS011;41709;52.536;5.688;2023-07-31T03:29:16;17.10;;;5.72;;
55784;SDS011;41709;52.536;5.688;2023-07-31T03:31:41;18.35;;;5.57;;
55784;SDS011;41709;52.536;5.688;2023-07-31T03:34:07;18.92;;;5.15;;
55784;SDS011;41709;52.536;5.688;2023-07-31T03:36:33;20.95;;;6.65;;
55784;SDS011;41709;52.536;5.688;2023-07-31T03:38:58;20.02;;;6.43;;
55784;SDS011;41709;52.536;5.688;2023-07-31T03:41:24;17.73;;;6.40;;
55784;SDS011;41709;52.536;5.688;2023-07-31T03:43:50;19.60;;;6.05;;
55784;SDS011;41709;52.536;5.688;2023-07-31T03:46:17;19.85;;;5.47;;
55784;SDS011;41709;52.536;5.688;2023-07-31T03:48:42;21.25;;;5.90;;
55784;SDS011;41709;52.536;5.688;2023-07-31T03:51:08;22.25;;;6.32;;
55784;SDS011;41709;52.536;5.688;2023-07-31T03:53:33;23.48;;;6.20;;
55784;SDS011;41709;52.536;5.688;2023-07-31T03:55:59;18.63;;;5.78;;
55784;SDS011;41709;52.536;5.688;2023-07-31T03:58:24;23.73;;;5.85;;
55784;SDS011;41709;52.536;5.688;2023-07-31T04:00:50;22.85;;;6.13;;
55784;SDS011;41709;52.536;5.688;2023-07-31T04:03:16;14.45;;;5.15;;
55784;SDS011;41709;52.536;5.688;2023-07-31T04:05:41;26.88;;;6.68;;
55784;SDS011;41709;52.536;5.688;2023-07-31T04:08:07;21.30;;;6.00;;
55784;SDS011;41709;52.536;5.688;2023-07-31T04:10:32;22.67;;;6.63;;
55784;SDS011;41709;52.536;5.688;2023-07-31T04:12:59;18.88;;;5.82;;
55784;SDS011;41709;52.536;5.688;2023-07-31T04:15:25;23.85;;;6.97;;
55784;SDS011;41709;52.536;5.688;2023-07-31T04:17:51;24.33;;;6.65;;
55784;SDS011;41709;52.536;5.688;2023-07-31T04:20:16;23.98;;;6.03;;
55784;SDS011;41709;52.536;5.688;2023-07-31T04:22:42;26.05;;;6.85;;
55784;SDS011;41709;52.536;5.688;2023-07-31T04:25:08;19.08;;;6.15;;
55784;SDS011;41709;52.536;5.688;2023-07-31T04:27:33;24.70;;;6.18;;
55784;SDS011;41709;52.536;5.688;2023-07-31T04:29:59;22.15;;;6.55;;
55784;SDS011;41709;52.536;5.688;2023-07-31T04:32:24;21.55;;;6.38;;
55784;SDS011;41709;52.536;5.688;2023-07-31T04:34:50;17.92;;;5.88;;
55784;SDS011;41709;52.536;5.688;2023-07-31T04:37:16;21.50;;;5.28;;
55784;SDS011;41709;52.536;5.688;2023-07-31T04:39:41;24.20;;;5.90;;
55784;SDS011;41709;52.536;5.688;2023-07-31T04:42:07;19.60;;;6.00;;
55784;SDS011;41709;52.536;5.688;2023-07-31T04:44:32;24.67;;;6.47;;
55784;SDS011;41709;52.536;5.688;2023-07-31T04:46:58;23.52;;;6.10;;
55784;SDS011;41709;52.536;5.688;2023-07-31T04:49:24;14.95;;;5.75;;
55784;SDS011;41709;52.536;5.688;2023-07-31T04:51:49;18.20;;;5.53;;
55784;SDS011;41709;52.536;5.688;2023-07-31T04:54:15;22.95;;;6.80;;
55784;SDS011;41709;52.536;5.688;2023-07-31T04:56:40;22.52;;;6.45;;
55784;SDS011;41709;52.536;5.688;2023-07-31T04:59:06;25.50;;;5.88;;
55784;SDS011;41709;52.536;5.688;2023-07-31T05:01:32;20.90;;;6.05;;
55784;SDS011;41709;52.536;5.688;2023-07-31T05:03:57;29.45;;;6.70;;
55784;SDS011;41709;52.536;5.688;2023-07-31T05:06:23;24.17;;;5.68;;
55784;SDS011;41709;52.536;5.688;2023-07-31T05:08:49;22.70;;;7.18;;
55784;SDS011;41709;52.536;5.688;2023-07-31T05:11:14;16.52;;;5.65;;
55784;SDS011;41709;52.536;5.688;2023-07-31T05:13:40;20.65;;;6.03;;
55784;SDS011;41709;52.536;5.688;2023-07-31T05:16:06;23.17;;;5.88;;
55784;SDS011;41709;52.536;5.688;2023-07-31T05:18:31;26.30;;;6.15;;
55784;SDS011;41709;52.536;5.688;2023-07-31T05:20:57;21.25;;;6.18;;
55784;SDS011;41709;52.536;5.688;2023-07-31T05:23:22;17.20;;;5.20;;
55784;SDS011;41709;52.536;5.688;2023-07-31T05:25:48;26.90;;;7.40;;
55784;SDS011;41709;52.536;5.688;2023-07-31T05:28:14;19.27;;;5.22;;
55784;SDS011;41709;52.536;5.688;2023-07-31T05:30:39;24.08;;;5.93;;
55784;SDS011;41709;52.536;5.688;2023-07-31T05:33:05;19.25;;;5.53;;
55784;SDS011;41709;52.536;5.688;2023-07-31T05:35:30;18.25;;;6.38;;
55784;SDS011;41709;52.536;5.688;2023-07-31T05:37:56;19.05;;;6.25;;
55784;SDS011;41709;52.536;5.688;2023-07-31T05:40:21;18.48;;;4.82;;
55784;SDS011;41709;52.536;5.688;2023-07-31T05:42:47;19.50;;;5.28;;
55784;SDS011;41709;52.536;5.688;2023-07-31T05:45:12;15.88;;;5.85;;
55784;SDS011;41709;52.536;5.688;2023-07-31T05:47:38;15.90;;;5.53;;
55784;SDS011;41709;52.536;5.688;2023-07-31T05:50:04;16.33;;;5.32;;
55784;SDS011;41709;52.536;5.688;2023-07-31T05:52:30;17.40;;;6.18;;
55784;SDS011;41709;52.536;5.688;2023-07-31T05:54:56;14.15;;;6.32;;
55784;SDS011;41709;52.536;5.688;2023-07-31T05:57:21;12.27;;;4.45;;
55784;SDS011;41709;52.536;5.688;2023-07-31T05:59:47;13.30;;;4.85;;
55784;SDS011;41709;52.536;5.688;2023-07-31T06:02:13;11.13;;;4.28;;
55784;SDS011;41709;52.536;5.688;2023-07-31T06:04:38;11.48;;;3.67;;
55784;SDS011;41709;52.536;5.688;2023-07-31T06:07:04;5.03;;;3.10;;
55784;SDS011;41709;52.536;5.688;2023-07-31T06:09:30;5.70;;;2.75;;
55784;SDS011;41709;52.536;5.688;2023-07-31T06:11:56;7.63;;;2.90;;
55784;SDS011;41709;52.536;5.688;2023-07-31T06:14:21;4.88;;;2.47;;
55784;SDS011;41709;52.536;5.688;2023-07-31T06:16:47;6.70;;;2.42;;
55784;SDS011;41709;52.536;5.688;2023-07-31T06:19:12;6.50;;;2.65;;
55784;SDS011;41709;52.536;5.688;2023-07-31T06:21:38;4.28;;;2.20;;
55784;SDS011;41709;52.536;5.688;2023-07-31T06:24:05;6.13;;;2.60;;
55784;SDS011;41709;52.536;5.688;2023-07-31T06:26:30;6.13;;;3.17;;
55784;SDS011;41709;52.536;5.688;2023-07-31T06:28:56;5.05;;;2.40;;
55784;SDS011;41709;52.536;5.688;2023-07-31T06:31:22;4.13;;;2.13;;
55784;SDS011;41709;52.536;5.688;2023-07-31T06:33:51;3.35;;;1.88;;
55784;SDS011;41709;52.536;5.688;2023-07-31T06:36:17;4.10;;;1.92;;
55784;SDS011;41709;52.536;5.688;2023-07-31T06:38:43;3.15;;;1.70;;
55784;SDS011;41709;52.536;5.688;2023-07-31T06:41:08;4.97;;;2.35;;
55784;SDS011;41709;52.536;5.688;2023-07-31T06:43:35;8.95;;;2.42;;
55784;SDS011;41709;52.536;5.688;2023-07-31T06:46:07;4.00;;;1.83;;
55784;SDS011;41709;52.536;5.688;2023-07-31T06:48:33;3.25;;;1.60;;
55784;SDS011;41709;52.536;5.688;2023-07-31T06:51:00;6.65;;;1.60;;
55784;SDS011;41709;52.536;5.688;2023-07-31T06:53:26;3.53;;;1.42;;
55784;SDS011;41709;52.536;5.688;2023-07-31T06:55:51;5.70;;;1.60;;
55784;SDS011;41709;52.536;5.688;2023-07-31T06:58:17;2.22;;;1.50;;
55784;SDS011;41709;52.536;5.688;2023-07-31T07:00:43;2.38;;;1.60;;
55784;SDS011;41709;52.536;5.688;2023-07-31T07:03:08;2.50;;;1.40;;
55784;SDS011;41709;52.536;5.688;2023-07-31T07:05:34;2.88;;;1.60;;
55784;SDS011;41709;52.536;5.688;2023-07-31T07:08:00;3.63;;;1.50;;
55784;SDS011;41709;52.536;5.688;2023-07-31T07:10:25;3.38;;;1.50;;
55784;SDS011;41709;52.536;5.688;2023-07-31T07:12:51;3.25;;;1.30;;
55784;SDS011;41709;52.536;5.688;2023-07-31T07:15:17;2.05;;;1.20;;
55784;SDS011;41709;52.536;5.688;2023-07-31T07:17:43;1.98;;;1.40;;
55784;SDS011;41709;52.536;5.688;2023-07-31T07:20:09;1.67;;;1.23;;
55784;SDS011;41709;52.536;5.688;2023-07-31T07:22:34;3.97;;;1.63;;
55784;SDS011;41709;52.536;5.688;2023-07-31T07:25:00;2.78;;;1.90;;
55784;SDS011;41709;52.536;5.688;2023-07-31T07:27:26;3.25;;;1.38;;
55784;SDS011;41709;52.536;5.688;2023-07-31T07:29:52;3.88;;;1.38;;
55784;SDS011;41709;52.536;5.688;2023-07-31T07:32:18;1.85;;;1.10;;
55784;SDS011;41709;52.536;5.688;2023-07-31T07:34:44;1.88;;;1.10;;
55784;SDS011;41709;52.536;5.688;2023-07-31T07:37:09;2.58;;;1.33;;
55784;SDS011;41709;52.536;5.688;2023-07-31T07:39:35;2.28;;;1.60;;
55784;SDS011;41709;52.536;5.688;2023-07-31T07:42:00;2.35;;;1.23;;
55784;SDS011;41709;52.536;5.688;2023-07-31T07:44:26;2.53;;;1.15;;
55784;SDS011;41709;52.536;5.688;2023-07-31T07:46:52;2.15;;;1.17;;
55784;SDS011;41709;52.536;5.688;2023-07-31T07:49:17;3.20;;;1.45;;
55784;SDS011;41709;52.536;5.688;2023-07-31T07:51:43;1.25;;;0.90;;
55784;SDS011;41709;52.536;5.688;2023-07-31T07:54:08;2.67;;;1.30;;
55784;SDS011;41709;52.536;5.688;2023-07-31T07:56:34;1.50;;;1.00;;
55784;SDS011;41709;52.536;5.688;2023-07-31T07:59:01;1.48;;;0.85;;
55784;SDS011;41709;52.536;5.688;2023-07-31T08:01:26;0.93;;;0.85;;
55784;SDS011;41709;52.536;5.688;2023-07-31T08:03:52;2.42;;;1.27;;
55784;SDS011;41709;52.536;5.688;2023-07-31T08:06:18;1.45;;;0.70;;
55784;SDS011;41709;52.536;5.688;2023-07-31T08:08:43;3.00;;;1.05;;
55784;SDS011;41709;52.536;5.688;2023-07-31T08:11:09;1.13;;;0.85;;
55784;SDS011;41709;52.536;5.688;2023-07-31T08:13:34;0.80;;;0.73;;
55784;SDS011;41709;52.536;5.688;2023-07-31T08:16:02;0.75;;;0.63;;
55784;SDS011;41709;52.536;5.688;2023-07-31T08:18:28;1.48;;;0.80;;
55784;SDS011;41709;52.536;5.688;2023-07-31T08:20:53;2.08;;;0.90;;
55784;SDS011;41709;52.536;5.688;2023-07-31T08:23:19;1.67;;;0.85;;
55784;SDS011;41709;52.536;5.688;2023-07-31T08:25:45;2.80;;;0.80;;
55784;SDS011;41709;52.536;5.688;2023-07-31T08:28:11;0.80;;;0.55;;
55784;SDS011;41709;52.536;5.688;2023-07-31T08:30:36;0.65;;;0.50;;
55784;SDS011;41709;52.536;5.688;2023-07-31T08:33:02;1.00;;;0.60;;
55784;SDS011;41709;52.536;5.688;2023-07-31T08:35:28;1.10;;;0.73;;
55784;SDS011;41709;52.536;5.688;2023-07-31T08:37:53;2.47;;;0.75;;
55784;SDS011;41709;52.536;5.688;2023-07-31T08:40:19;0.63;;;0.60;;
55784;SDS011;41709;52.536;5.688;2023-07-31T08:42:47;1.75;;;1.17;;
55784;SDS011;41709;52.536;5.688;2023-07-31T08:45:14;0.88;;;0.50;;
55784;SDS011;41709;52.536;5.688;2023-07-31T08:47:44;0.80;;;0.40;;
55784;SDS011;41709;52.536;5.688;2023-07-31T08:50:12;0.70;;;0.50;;
55784;SDS011;41709;52.536;5.688;2023-07-31T08:52:38;0.35;;;0.32;;
55784;SDS011;41709;52.536;5.688;2023-07-31T08:55:05;0.70;;;0.30;;
55784;SDS011;41709;52.536;5.688;2023-07-31T08:57:31;0.85;;;0.38;;
55784;SDS011;41709;52.536;5.688;2023-07-31T08:59:59;0.30;;;0.30;;
55784;SDS011;41709;52.536;5.688;2023-07-31T09:02:25;0.95;;;0.52;;
55784;SDS011;41709;52.536;5.688;2023-07-31T09:04:59;3.05;;;0.50;;
55784;SDS011;41709;52.536;5.688;2023-07-31T09:07:26;1.98;;;0.40;;
55784;SDS011;41709;52.536;5.688;2023-07-31T09:09:52;0.70;;;0.40;;
55784;SDS011;41709;52.536;5.688;2023-07-31T09:12:18;0.68;;;0.30;;
55784;SDS011;41709;52.536;5.688;2023-07-31T09:14:44;0.63;;;0.28;;
55784;SDS011;41709;52.536;5.688;2023-07-31T09:17:12;0.80;;;0.30;;
55784;SDS011;41709;52.536;5.688;2023-07-31T09:19:37;0.43;;;0.35;;
55784;SDS011;41709;52.536;5.688;2023-07-31T09:22:04;0.25;;;0.25;;
55784;SDS011;41709;52.536;5.688;2023-07-31T09:24:31;0.70;;;0.30;;
55784;SDS011;41709;52.536;5.688;2023-07-31T09:26:58;0.55;;;0.30;;
55784;SDS011;41709;52.536;5.688;2023-07-31T09:29:24;1.23;;;0.20;;
55784;SDS011;41709;52.536;5.688;2023-07-31T09:31:52;0.20;;;0.20;;
55784;SDS011;41709;52.536;5.688;2023-07-31T09:34:18;0.30;;;0.20;;
55784;SDS011;41709;52.536;5.688;2023-07-31T09:36:48;0.20;;;0.15;;
55784;SDS011;41709;52.536;5.688;2023-07-31T09:39:16;0.20;;;0.20;;
55784;SDS011;41709;52.536;5.688;2023-07-31T09:41:43;0.20;;;0.20;;
55784;SDS011;41709;52.536;5.688;2023-07-31T09:44:10;0.20;;;0.20;;
55784;SDS011;41709;52.536;5.688;2023-07-31T09:46:36;0.30;;;0.20;;
55784;SDS011;41709;52.536;5.688;2023-07-31T09:51:38;1.45;;;0.70;;
55784;SDS011;41709;52.536;5.688;2023-07-31T09:54:14;0.22;;;0.20;;
55784;SDS011;41709;52.536;5.688;2023-07-31T09:56:44;0.15;;;0.10;;
55784;SDS011;41709;52.536;5.688;2023-07-31T09:59:13;3.45;;;0.30;;
55784;SDS011;41709;52.536;5.688;2023-07-31T10:01:45;0.20;;;0.10;;
55784;SDS011;41709;52.536;5.688;2023-07-31T10:04:11;0.47;;;0.20;;
55784;SDS011;41709;52.536;5.688;2023-07-31T10:06:38;0.20;;;0.10;;
55784;SDS011;41709;52.536;5.688;2023-07-31T10:09:07;0.82;;;0.10;;
55784;SDS011;41709;52.536;5.688;2023-07-31T10:11:41;0.10;;;0.10;;
55784;SDS011;41709;52.536;5.688;2023-07-31T10:14:09;0.85;;;0.10;;
55784;SDS011;41709;52.536;5.688;2023-07-31T10:16:37;0.20;;;0.10;;
55784;SDS011;41709;52.536;5.688;2023-07-31T10:19:04;0.20;;;0.10;;
55784;SDS011;41709;52.536;5.688;2023-07-31T10:21:31;1.45;;;0.15;;
55784;SDS011;41709;52.536;5.688;2023-07-31T10:26:27;0.10;;;0.10;;
55784;SDS011;41709;52.536;5.688;2023-07-31T10:28:54;0.80;;;0.38;;
55784;SDS011;41709;52.536;5.688;2023-07-31T10:31:20;3.75;;;0.30;;
55784;SDS011;41709;52.536;5.688;2023-07-31T10:33:46;1.85;;;0.30;;
55784;SDS011;41709;52.536;5.688;2023-07-31T10:36:18;1.05;;;0.43;;
55784;SDS011;41709;52.536;5.688;2023-07-31T10:38:45;2.13;;;0.75;;
55784;SDS011;41709;52.536;5.688;2023-07-31T10:41:13;4.60;;;0.80;;
55784;SDS011;41709;52.536;5.688;2023-07-31T10:43:39;2.47;;;0.63;;
55784;SDS011;41709;52.536;5.688;2023-07-31T10:46:09;1.27;;;0.57;;
55784;SDS011;41709;52.536;5.688;2023-07-31T10:48:38;2.90;;;0.80;;
55784;SDS011;41709;52.536;5.688;2023-07-31T10:53:38;4.68;;;1.10;;
55784;SDS011;41709;52.536;5.688;2023-07-31T10:56:06;3.67;;;1.25;;
55784;SDS011;41709;52.536;5.688;2023-07-31T10:58:33;4.43;;;1.13;;
55784;SDS011;41709;52.536;5.688;2023-07-31T11:01:00;2.97;;;1.00;;
55784;SDS011;41709;52.536;5.688;2023-07-31T11:06:19;3.10;;;0.95;;
55784;SDS011;41709;52.536;5.688;2023-07-31T11:08:45;1.98;;;0.80;;
55784;SDS011;41709;52.536;5.688;2023-07-31T11:11:13;5.15;;;1.80;;
55784;SDS011;41709;52.536;5.688;2023-07-31T11:13:41;5.00;;;1.60;;
55784;SDS011;41709;52.536;5.688;2023-07-31T11:16:12;3.83;;;1.40;;
55784;SDS011;41709;52.536;5.688;2023-07-31T11:18:39;5.57;;;1.50;;
55784;SDS011;41709;52.536;5.688;2023-07-31T11:21:06;7.95;;;1.80;;
55784;SDS011;41709;52.536;5.688;2023-07-31T11:23:32;5.13;;;1.67;;
55784;SDS011;41709;52.536;5.688;2023-07-31T11:25:59;8.02;;;1.75;;
55784;SDS011;41709;52.536;5.688;2023-07-31T11:28:25;6.13;;;1.58;;
55784;SDS011;41709;52.536;5.688;2023-07-31T11:30:51;8.90;;;2.05;;
55784;SDS011;41709;52.536;5.688;2023-07-31T11:33:16;8.73;;;2.22;;
55784;SDS011;41709;52.536;5.688;2023-07-31T11:35:46;9.43;;;2.22;;
55784;SDS011;41709;52.536;5.688;2023-07-31T11:38:34;10.75;;;1.75;;
55784;SDS011;41709;52.536;5.688;2023-07-31T11:41:00;11.02;;;2.13;;
55784;SDS011;41709;52.536;5.688;2023-07-31T11:43:33;6.57;;;1.80;;
55784;SDS011;41709;52.536;5.688;2023-07-31T11:46:01;7.57;;;2.53;;
55784;SDS011;41709;52.536;5.688;2023-07-31T11:48:31;8.75;;;2.08;;
55784;SDS011;41709;52.536;5.688;2023-07-31T11:51:00;6.22;;;1.52;;
55784;SDS011;41709;52.536;5.688;2023-07-31T11:55:59;5.30;;;1.70;;
55784;SDS011;41709;52.536;5.688;2023-07-31T11:58:26;10.13;;;2.47;;
55784;SDS011;41709;52.536;5.688;2023-07-31T12:00:53;4.80;;;1.75;;
55784;SDS011;41709;52.536;5.688;2023-07-31T12:03:19;6.60;;;2.00;;
55784;SDS011;41709;52.536;5.688;2023-07-31T12:05:47;10.38;;;2.13;;
55784;SDS011;41709;52.536;5.688;2023-07-31T12:08:12;7.50;;;2.35;;
55784;SDS011;41709;52.536;5.688;2023-07-31T12:10:38;3.72;;;2.00;;
55784;SDS011;41709;52.536;5.688;2023-07-31T12:13:12;9.75;;;2.40;;
55784;SDS011;41709;52.536;5.688;2023-07-31T12:15:48;8.90;;;2.10;;
55784;SDS011;41709;52.536;5.688;2023-07-31T12:18:21;6.72;;;2.03;;
55784;SDS011;41709;52.536;5.688;2023-07-31T12:20:48;7.38;;;1.73;;
55784;SDS011;41709;52.536;5.688;2023-07-31T12:23:19;5.78;;;1.83;;
55784;SDS011;41709;52.536;5.688;2023-07-31T12:28:40;5.03;;;2.40;;
55784;SDS011;41709;52.536;5.688;2023-07-31T12:31:08;5.25;;;1.77;;
55784;SDS011;41709;52.536;5.688;2023-07-31T12:36:03;10.25;;;2.80;;
55784;SDS011;41709;52.536;5.688;2023-07-31T12:38:31;5.80;;;2.05;;
55784;SDS011;41709;52.536;5.688;2023-07-31T12:40:57;7.00;;;2.08;;
55784;SDS011;41709;52.536;5.688;2023-07-31T12:43:22;6.22;;;2.00;;
55784;SDS011;41709;52.536;5.688;2023-07-31T12:45:48;5.68;;;2.10;;
55784;SDS011;41709;52.536;5.688;2023-07-31T12:48:14;7.30;;;2.17;;
55784;SDS011;41709;52.536;5.688;2023-07-31T12:50:39;8.45;;;2.42;;
55784;SDS011;41709;52.536;5.688;2023-07-31T12:53:05;5.07;;;2.20;;
55784;SDS011;41709;52.536;5.688;2023-07-31T12:55:31;4.70;;;1.80;;
55784;SDS011;41709;52.536;5.688;2023-07-31T12:57:59;6.60;;;1.80;;
55784;SDS011;41709;52.536;5.688;2023-07-31T13:00:28;5.45;;;2.25;;
55784;SDS011;41709;52.536;5.688;2023-07-31T13:02:53;4.05;;;1.38;;
55784;SDS011;41709;52.536;5.688;2023-07-31T13:05:19;5.53;;;1.92;;
55784;SDS011;41709;52.536;5.688;2023-07-31T13:07:45;4.30;;;1.67;;
55784;SDS011;41709;52.536;5.688;2023-07-31T13:10:12;7.53;;;1.92;;
55784;SDS011;41709;52.536;5.688;2023-07-31T13:12:38;7.93;;;1.70;;
55784;SDS011;41709;52.536;5.688;2023-07-31T13:15:04;7.40;;;1.98;;
55784;SDS011;41709;52.536;5.688;2023-07-31T13:17:30;8.20;;;2.17;;
55784;SDS011;41709;52.536;5.688;2023-07-31T13:19:56;8.75;;;2.30;;
55784;SDS011;41709;52.536;5.688;2023-07-31T13:22:21;8.82;;;2.35;;
55784;SDS011;41709;52.536;5.688;2023-07-31T13:24:47;6.70;;;2.25;;
55784;SDS011;41709;52.536;5.688;2023-07-31T13:27:13;5.32;;;1.95;;
55784;SDS011;41709;52.536;5.688;2023-07-31T13:29:43;6.30;;;2.10;;
55784;SDS011;41709;52.536;5.688;2023-07-31T13:32:08;7.90;;;2.00;;
55784;SDS011;41709;52.536;5.688;2023-07-31T13:34:34;9.85;;;1.95;;
55784;SDS011;41709;52.536;5.688;2023-07-31T13:36:59;8.40;;;2.15;;
55784;SDS011;41709;52.536;5.688;2023-07-31T13:39:25;7.63;;;2.72;;
55784;SDS011;41709;52.536;5.688;2023-07-31T13:41:51;5.88;;;1.90;;
55784;SDS011;41709;52.536;5.688;2023-07-31T13:44:16;4.30;;;1.85;;
55784;SDS011;41709;52.536;5.688;2023-07-31T13:46:42;5.38;;;1.95;;
55784;SDS011;41709;52.536;5.688;2023-07-31T13:49:07;6.70;;;1.83;;
55784;SDS011;41709;52.536;5.688;2023-07-31T13:51:33;10.65;;;2.63;;
55784;SDS011;41709;52.536;5.688;2023-07-31T13:53:58;12.40;;;2.20;;
55784;SDS011;41709;52.536;5.688;2023-07-31T13:56:24;7.15;;;1.80;;
55784;SDS011;41709;52.536;5.688;2023-07-31T13:58:50;7.55;;;1.80;;
55784;SDS011;41709;52.536;5.688;2023-07-31T14:01:15;4.45;;;1.60;;
55784;SDS011;41709;52.536;5.688;2023-07-31T14:03:41;5.78;;;1.60;;
55784;SDS011;41709;52.536;5.688;2023-07-31T14:06:06;3.05;;;1.65;;
55784;SDS011;41709;52.536;5.688;2023-07-31T14:08:32;4.72;;;1.20;;
55784;SDS011;41709;52.536;5.688;2023-07-31T14:10:58;4.88;;;1.67;;
55784;SDS011;41709;52.536;5.688;2023-07-31T14:13:23;2.63;;;1.42;;
55784;SDS011;41709;52.536;5.688;2023-07-31T14:15:49;6.35;;;1.25;;
55784;SDS011;41709;52.536;5.688;2023-07-31T14:18:14;6.70;;;1.92;;
55784;SDS011;41709;52.536;5.688;2023-07-31T14:20:40;7.60;;;1.42;;
55784;SDS011;41709;52.536;5.688;2023-07-31T14:23:05;3.65;;;1.88;;
55784;SDS011;41709;52.536;5.688;2023-07-31T14:25:31;4.30;;;1.38;;
55784;SDS011;41709;52.536;5.688;2023-07-31T14:27:56;3.47;;;1.25;;
55784;SDS011;41709;52.536;5.688;2023-07-31T14:30:22;3.10;;;1.30;;
55784;SDS011;41709;52.536;5.688;2023-07-31T14:32:48;6.15;;;1.73;;
55784;SDS011;41709;52.536;5.688;2023-07-31T14:35:14;2.53;;;1.33;;
55784;SDS011;41709;52.536;5.688;2023-07-31T14:37:40;7.00;;;1.45;;
55784;SDS011;41709;52.536;5.688;2023-07-31T14:40:08;3.85;;;1.30;;
55784;SDS011;41709;52.536;5.688;2023-07-31T14:42:34;5.03;;;1.70;;
55784;SDS011;41709;52.536;5.688;2023-07-31T14:45:01;4.07;;;1.60;;
55784;SDS011;41709;52.536;5.688;2023-07-31T14:47:27;3.13;;;1.38;;
55784;SDS011;41709;52.536;5.688;2023-07-31T14:49:52;1.80;;;1.15;;
55784;SDS011;41709;52.536;5.688;2023-07-31T14:52:18;1.73;;;1.17;;
55784;SDS011;41709;52.536;5.688;2023-07-31T14:54:44;2.92;;;1.45;;
55784;SDS011;41709;52.536;5.688;2023-07-31T14:57:10;1.80;;;1.33;;
55784;SDS011;41709;52.536;5.688;2023-07-31T14:59:36;1.85;;;1.00;;
55784;SDS011;41709;52.536;5.688;2023-07-31T15:02:01;2.35;;;1.15;;
55784;SDS011;41709;52.536;5.688;2023-07-31T15:04:27;2.53;;;1.17;;
55784;SDS011;41709;52.536;5.688;2023-07-31T15:06:53;2.15;;;0.90;;